Time;durP1;ratioP1;P1;durP2;ratioP2;P2;SDS_P1;SDS_P2;PMS_P1;PMS_P2;Temp;Humidity;BMP_temperature;BMP_pressure;BME280_temperature;BME280_humidity;BME280_pressure;Samples;Min_cycle;Max_cycle;Signal;HPM_P1;HPM_P2
2021/05/23 00:00:27;;;;;;;5.55;2.95;;;;;;;9.06;77.72;98303.59;258858;1111;22797;-74
2021/05/23 00:07:07;;;;;;;5.53;2.87;;;;;;;9.12;77.88;98304.34;259617;1103;22786;-72
2021/05/23 00:14:12;;;;;;;5.00;2.20;;;;;;;9.12;78.13;98315.03;259261;1103;23075;-72
2021/05/23 00:20:54;;;;;;;2.90;1.70;;;;;;;9.12;78.30;98308.88;259103;1103;22791;-72
2021/05/23 00:41:33;;;;;;;4.23;2.30;;;;;;;8.99;78.06;98308.52;259197;1103;22949;-73
2021/05/23 00:47:38;;;;;;;4.27;1.90;;;;;;;8.96;78.22;98302.97;259090;1111;23083;-71
2021/05/23 00:53:56;;;;;;;;;;;;;;;;;;;;;
2021/05/23 01:07:57;;;;;;;3.98;2.80;;;;;;;8.75;77.66;98303.23;258882;1103;22832;-72
2021/05/23 01:15:07;;;;;;;3.20;2.20;;;;;;;8.72;78.18;98309.16;259260;1104;22819;-71
2021/05/23 01:21:51;;;;;;;4.83;2.37;;;;;;;8.70;78.13;98305.97;259046;1103;27838;-71
2021/05/23 01:28:24;;;;;;;4.15;2.30;;;;;;;8.66;78.80;98305.77;259122;1103;25890;-73
2021/05/23 01:35:09;;;;;;;3.90;2.40;;;;;;;8.63;78.97;98301.00;259468;1108;22810;-73
2021/05/23 01:41:51;;;;;;;;;;;;;;;;;;;;;
2021/05/23 01:55:27;;;;;;;7.70;3.53;;;;;;;8.23;78.83;98303.05;259165;1103;22802;-72
2021/05/23 02:08:09;;;;;;;;;;;;;;;;;;;;;
2021/05/23 02:14:56;;;;;;;3.27;2.70;;;;;;;8.23;79.21;98303.05;259160;1110;22974;-72
2021/05/23 02:21:32;;;;;;;4.70;2.90;;;;;;;8.26;79.37;98302.47;259103;1103;22967;-72
2021/05/23 02:28:09;;;;;;;;;;;;;;;;;;;;;
2021/05/23 02:34:56;;;;;;;5.80;3.20;;;;;;;8.05;79.05;98315.23;259377;1111;22783;-72
2021/05/23 02:42:01;;;;;;;6.77;3.40;;;;;;;8.04;79.52;98317.13;259070;1103;27259;-73
2021/05/23 02:49:05;;;;;;;;;;;;;;;;;;;;;
2021/05/23 02:55:06;;;;;;;;;;;;;;;;;;;;;
2021/05/23 03:08:56;;;;;;;;;;;;;;;;;;;;;
2021/05/23 03:16:02;;;;;;;6.77;4.07;;;;;;;8.46;79.43;98322.03;258973;1103;27952;-73
2021/05/23 03:22:53;;;;;;;;;;;;;;;;;;;;;
2021/05/23 03:29:56;;;;;;;;;;;;;;;;;;;;;
2021/05/23 03:36:52;;;;;;;5.93;3.90;;;;;;;9.56;79.04;98337.08;258916;1103;22786;-72
2021/05/23 03:43:13;;;;;;;5.90;3.87;;;;;;;9.82;77.95;98336.65;259123;1109;23546;-72
2021/05/23 03:49:37;;;;;;;6.23;3.10;;;;;;;10.11;77.96;98336.41;258964;1110;24324;-73
2021/05/23 03:56:18;;;;;;;6.20;3.40;;;;;;;10.51;77.10;98336.76;259093;1103;22792;-72
2021/05/23 04:02:55;;;;;;;;;;;;;;;;;;;;;
2021/05/23 04:09:24;;;;;;;8.40;4.95;;;;;;;11.03;76.63;98339.16;259092;1110;22882;-74
2021/05/23 04:16:18;;;;;;;;;;;;;;;;;;;;;
2021/05/23 04:22:02;;;;;;;7.35;4.18;;;;;;;11.02;76.09;98348.29;259146;1103;26267;-72
2021/05/23 04:28:44;;;;;;;5.05;3.50;;;;;;;11.12;75.70;98345.41;259303;1108;22787;-72
2021/05/23 04:35:16;;;;;;;5.60;3.20;;;;;;;11.28;75.81;98351.20;258872;1110;22782;-72
2021/05/23 04:41:25;;;;;;;5.63;2.50;;;;;;;11.60;75.62;98340.56;259273;1103;22778;-73
2021/05/23 04:47:35;;;;;;;;;;;;;;;;;;;;;
2021/05/23 05:01:22;;;;;;;5.70;2.53;;;;;;;12.55;73.65;98352.09;258925;1106;22782;-72
2021/05/23 05:13:54;;;;;;;4.47;2.60;;;;;;;12.91;72.27;98356.46;259350;1103;22809;-73
2021/05/23 05:20:31;;;;;;;;;;;;;;;;;;;;;
2021/05/23 05:34:12;;;;;;;8.35;4.10;;;;;;;13.46;71.10;98363.97;259105;1110;23848;-72
2021/05/23 05:40:50;;;;;;;9.77;4.70;;;;;;;13.61;70.27;98367.28;259113;1103;22797;-71
2021/05/23 05:47:26;;;;;;;;;;;;;;;;;;;;;
2021/05/23 05:53:47;;;;;;;7.90;3.50;;;;;;;13.77;69.06;98378.36;259253;1103;26076;-72
2021/05/23 06:00:39;;;;;;;;;;;;;;;;;;;;;
2021/05/23 06:06:45;;;;;;;4.90;2.65;;;;;;;13.99;67.96;98380.04;259142;1104;22783;-72
2021/05/23 06:13:12;;;;;;;;;;;;;;;;;;;;;
2021/05/23 06:20:12;;;;;;;;;;;;;;;;;;;;;
2021/05/23 06:26:20;;;;;;;6.10;2.90;;;;;;;14.82;66.31;98397.69;259105;1103;25839;-72
2021/05/23 06:33:38;;;;;;;6.63;3.17;;;;;;;14.93;64.64;98408.09;259233;1111;23039;-72
2021/05/23 06:39:55;;;;;;;4.85;2.80;;;;;;;14.94;63.71;98409.67;259150;1103;23620;-72
2021/05/23 06:45:56;;;;;;;;;;;;;;;;;;;;;
2021/05/23 06:52:25;;;;;;;;;;;;;;;;;;;;;
2021/05/23 07:06:28;;;;;;;2.15;1.50;;;;;;;15.95;61.74;98414.20;258799;1106;22783;-72
2021/05/23 07:12:33;;;;;;;2.20;1.70;;;;;;;16.28;61.70;98420.70;259694;1103;22793;-73
2021/05/23 07:19:26;;;;;;;1.30;1.10;;;;;;;16.60;60.68;98427.94;258984;1103;23006;-72
2021/05/23 07:25:40;;;;;;;1.10;1.00;;;;;;;16.98;59.70;98425.29;258956;1103;22782;-71
2021/05/23 07:31:15;;;;;;;1.00;0.80;;;;;;;17.30;58.28;98426.26;259084;1103;22847;-71
2021/05/23 07:36:58;;;;;;;2.55;1.00;;;;;;;17.47;57.46;98422.49;259101;1110;22798;-72
2021/05/23 07:43:03;;;;;;;;;;;;;;;;;;;;;
2021/05/23 07:49:13;;;;;;;1.75;0.93;;;;;;;18.07;56.58;98414.50;259216;1110;22922;-74
2021/05/23 07:54:54;;;;;;;0.70;0.70;;;;;;;18.13;54.62;98415.03;259375;1110;22851;-72
2021/05/23 08:00:48;;;;;;;1.80;1.00;;;;;;;18.48;55.31;98408.94;259710;1103;22783;-71
2021/05/23 08:06:08;;;;;;;;;;;;;;;18.57;53.82;98414.98;259212;1110;22927;-72
2021/05/23 08:17:50;;;;;;;1.95;0.80;;;;;;;18.63;52.34;98410.09;259251;1103;26303;-72
2021/05/23 08:23:14;;;;;;;2.20;1.10;;;;;;;19.04;53.18;98409.89;259874;1108;22877;-71
2021/05/23 08:28:42;;;;;;;;;;;;;;;;;;;;;
2021/05/23 08:34:22;;;;;;;1.48;0.73;;;;;;;19.03;51.33;98416.45;259279;1103;22873;-73
2021/05/23 08:40:22;;;;;;;1.90;0.80;;;;;;;18.81;49.66;98418.66;259196;1103;26462;-72
2021/05/23 08:46:00;;;;;;;0.70;0.70;;;;;;;18.45;49.85;98417.78;259344;1107;22783;-71
2021/05/23 08:51:12;;;;;;;2.25;0.90;;;;;;;18.30;49.01;98424.79;259217;1103;22891;-71
2021/05/23 08:57:08;;;;;;;1.80;1.10;;;;;;;18.37;49.06;98432.30;259163;1103;26232;-72
2021/05/23 09:08:38;;;;;;;1.80;0.80;;;;;;;18.66;48.59;98439.22;259361;1108;21724;-71
2021/05/23 09:15:08;;;;;;;;;;;;;;;;;;;;;
2021/05/23 09:20:44;;;;;;;0.87;0.70;;;;;;;19.32;47.77;98453.17;259250;1105;23228;-71
2021/05/23 09:26:23;;;;;;;;;;;;;;;;;;;;;
2021/05/23 09:31:29;;;;;;;1.50;1.03;;;;;;;19.68;46.37;98462.09;259391;1103;22783;-71
2021/05/23 09:36:49;;;;;;;2.00;1.10;;;;;;;19.69;47.25;98460.95;259130;1110;22896;-71
2021/05/23 09:42:06;;;;;;;1.10;0.97;;;;;;;19.73;46.58;98461.81;259039;1103;25476;-72
2021/05/23 09:47:31;;;;;;;1.80;1.20;;;;;;;19.99;46.93;98461.20;259188;1110;22807;-73
2021/05/23 09:52:58;;;;;;;1.60;1.20;;;;;;;20.32;46.73;98467.24;259132;1103;22799;-71
2021/05/23 09:58:33;;;;;;;1.77;1.33;;;;;;;20.16;46.30;98475.48;259060;1110;22864;-72
2021/05/23 10:10:07;;;;;;;1.35;0.90;;;;;;;19.54;46.23;98473.44;259512;1103;22870;-69
2021/05/23 10:15:36;;;;;;;1.33;1.10;;;;;;;19.32;46.52;98483.84;259832;1110;22978;-71
2021/05/23 10:21:49;;;;;;;3.55;1.20;;;;;;;19.01;46.17;98497.45;259388;1103;22952;-72
2021/05/23 10:27:26;;;;;;;1.83;1.10;;;;;;;18.84;47.39;98518.34;259141;1103;24140;-72
2021/05/23 10:32:44;;;;;;;1.65;1.40;;;;;;;18.72;47.27;98515.71;259147;1103;22799;-72
2021/05/23 10:38:29;;;;;;;3.53;2.07;;;;;;;18.65;47.97;98521.77;259192;1110;22952;-72
2021/05/23 10:44:04;;;;;;;1.90;1.30;;;;;;;18.44;47.96;98516.57;259394;1101;22980;-72
2021/05/23 10:49:32;;;;;;;3.10;1.60;;;;;;;18.28;48.68;98520.00;259672;1108;22948;-72
2021/05/23 10:55:02;;;;;;;4.10;1.40;;;;;;;18.32;48.20;98519.34;259301;1103;22783;-72
2021/05/23 11:00:34;;;;;;;3.60;3.25;;;;;;;18.34;49.30;98525.19;259152;1110;22804;-75
2021/05/23 11:06:17;;;;;;;2.53;1.70;;;;;;;18.29;49.04;98518.09;259129;1110;24413;-71
2021/05/23 11:11:41;;;;;;;3.50;2.40;;;;;;;18.33;50.17;98532.55;259217;1110;24590;-75
2021/05/23 11:17:01;;;;;;;3.35;1.50;;;;;;;18.30;50.59;98534.02;259171;1103;22809;-72
2021/05/23 11:22:27;;;;;;;;;;;;;;;;;;;;;
2021/05/23 11:27:39;;;;;;;1.80;1.60;;;;;;;17.58;51.51;98567.13;259556;1108;23031;-72
2021/05/23 11:33:14;;;;;;;1.65;0.70;;;;;;;16.89;48.80;98555.27;259114;1103;25893;-71
2021/05/23 11:38:18;;;;;;;1.85;0.65;;;;;;;16.06;48.91;98584.76;259207;1103;22937;-72
2021/05/23 11:43:27;;;;;;;2.87;1.40;;;;;;;15.21;52.20;98600.77;259207;1103;22796;-74
2021/05/23 11:49:47;;;;;;;;;;;;;;;;;;;;;
2021/05/23 11:56:41;;;;;;;;;;;;;;;;;;;;;
2021/05/23 12:17:52;;;;;;;2.20;0.80;;;;;;;13.64;62.89;98574.69;258862;1103;22813;-73
2021/05/23 12:24:47;;;;;;;2.50;0.80;;;;;;;14.26;61.94;98569.38;259202;1103;22786;-71
2021/05/23 12:31:09;;;;;;;;;;;;;;;;;;;;;
2021/05/23 12:37:59;;;;;;;;;;;;;;;;;;;;;
2021/05/23 12:44:36;;;;;;;1.30;0.90;;;;;;;15.47;59.06;98580.95;259224;1104;23492;-73
2021/05/23 12:50:33;;;;;;;2.67;1.20;;;;;;;15.60;58.08;98581.05;259289;1103;22877;-73
2021/05/23 12:57:18;;;;;;;;;;;;;;;;;;;;;
2021/05/23 13:03:22;;;;;;;7.25;4.35;;;;;;;15.88;57.35;98590.30;259158;1103;22842;-72
2021/05/23 13:09:25;;;;;;;2.03;1.10;;;;;;;16.20;56.59;98596.12;259134;1110;22771;-71
2021/05/23 13:15:02;;;;;;;0.75;0.70;;;;;;;16.25;54.57;98590.49;259232;1103;22799;-72
2021/05/23 13:21:12;;;;;;;26.00;18.00;;;;;;;16.24;54.98;98591.64;259506;1108;22948;-71
2021/05/23 13:27:19;;;;;;;3.25;2.20;;;;;;;16.37;55.45;98600.59;259341;1110;22779;-72
2021/05/23 13:34:09;;;;;;;;;;;;;;;;;;;;;
2021/05/23 13:47:28;;;;;;;;;;;;;;;;;;;;;
2021/05/23 14:00:33;;;;;;;;;;;;;;;;;;;;;
2021/05/23 14:06:36;;;;;;;;;;;;;;;;;;;;;
2021/05/23 14:12:52;;;;;;;1.13;0.83;;;;;;;16.24;55.42;98613.26;259426;1103;22829;-72
2021/05/23 14:18:58;;;;;;;3.25;1.20;;;;;;;16.30;54.76;98623.84;259178;1110;22829;-72
2021/05/23 14:24:44;;;;;;;3.15;1.25;;;;;;;16.27;54.57;98611.81;259437;1103;25919;-73
2021/05/23 14:30:57;;;;;;;3.40;1.93;;;;;;;16.17;54.41;98602.19;259219;1103;22786;-71
2021/05/23 14:37:33;;;;;;;2.67;1.23;;;;;;;16.16;54.10;98616.81;259349;1103;23037;-71
2021/05/23 14:44:11;;;;;;;2.65;1.45;;;;;;;16.18;54.53;98614.55;259117;1103;26436;-73
2021/05/23 14:50:19;;;;;;;2.77;1.57;;;;;;;15.96;54.81;98614.88;259183;1103;22853;-73
2021/05/23 14:55:50;;;;;;;4.45;2.60;;;;;;;15.68;56.01;98623.42;259581;1108;22826;-71
2021/05/23 15:02:12;;;;;;;5.40;3.75;;;;;;;15.32;57.46;98630.08;259095;1110;22779;-73
2021/05/23 15:08:30;;;;;;;6.83;3.53;;;;;;;15.16;59.01;98632.52;259132;1110;22858;-72
2021/05/23 15:15:01;;;;;;;7.20;4.40;;;;;;;15.14;59.82;98640.16;259196;1103;25894;-72
2021/05/23 15:21:46;;;;;;;8.65;4.05;;;;;;;15.12;60.72;98651.25;259122;1111;22799;-72
2021/05/23 15:34:51;;;;;;;;;;;;;;;;;;;;;
2021/05/23 15:41:32;;;;;;;;;;;;;;;;;;;;;
2021/05/23 15:48:03;;;;;;;23.83;16.57;;;;;;;15.13;61.78;98647.45;259218;1103;22783;-72
2021/05/23 15:53:59;;;;;;;8.37;4.97;;;;;;;15.15;61.79;98652.52;259182;1103;22844;-72
2021/05/23 16:00:01;;;;;;;;;;;;;;;;;;;;;
2021/05/23 16:06:58;;;;;;;;;;;;;;;;;;;;;
2021/05/23 16:27:15;;;;;;;;;;;;;;;;;;;;;
2021/05/23 16:33:19;;;;;;;;;;;;;;;;;;;;;
2021/05/23 16:53:04;;;;;;;11.10;7.30;;;;;;;13.92;66.94;98719.83;259285;1105;23235;-72
2021/05/23 17:13:46;;;;;;;;;;;;;;;;;;;;;
2021/05/23 17:27:26;;;;;;;;;;;;;;;;;;;;;
2021/05/23 17:34:04;;;;;;;;;;;;;;;;;;;;;
2021/05/23 17:47:17;;;;;;;1.30;0.40;;;;;;;11.37;69.82;98785.73;259187;1111;22854;-72
2021/05/23 17:54:21;;;;;;;2.50;0.80;;;;;;;10.59;71.08;98795.96;259166;1111;22782;-75
2021/05/23 18:08:09;;;;;;;;;;;;;;;;;;;;;
2021/05/23 18:36:12;;;;;;;;;;;;;;;;;;;;;
2021/05/23 19:11:28;;;;;;;7.80;5.20;;;;;;;10.18;78.74;98861.47;259096;1103;22810;-74
2021/05/23 19:18:21;;;;;;;8.83;5.90;;;;;;;9.92;78.51;98879.66;258601;1106;22808;-74
2021/05/23 19:25:25;;;;;;;13.60;8.80;;;;;;;9.61;78.48;98901.28;258734;1103;22836;-75
2021/05/23 19:39:20;;;;;;;17.20;11.50;;;;;;;9.06;79.83;98912.05;258739;1105;26012;-74
2021/05/23 19:46:06;;;;;;;17.90;12.40;;;;;;;8.88;80.22;98919.62;258815;1111;22861;-73
2021/05/23 20:00:15;;;;;;;16.43;10.77;;;;;;;8.72;81.08;98950.91;258936;1103;26137;-74
2021/05/23 20:20:47;;;;;;;16.20;11.00;;;;;;;8.47;81.46;98980.34;259074;1103;22852;-74
2021/05/23 20:40:57;;;;;;;12.20;8.20;;;;;;;8.23;81.80;98984.32;259518;1108;22810;-74
2021/05/23 20:47:44;;;;;;;26.45;17.30;;;;;;;8.09;81.60;98980.59;259663;1103;22785;-74
2021/05/23 20:54:33;;;;;;;;;;;;;;;;;;;;;
2021/05/23 21:07:53;;;;;;;;;;;;;;;;;;;;;
2021/05/23 21:14:36;;;;;;;18.05;11.90;;;;;;;7.95;82.58;99016.88;258946;1103;22855;-73
2021/05/23 21:21:24;;;;;;;15.50;11.57;;;;;;;7.96;83.21;99029.95;258937;1103;22872;-74
2021/05/23 21:28:18;;;;;;;14.53;9.90;;;;;;;8.03;83.38;99041.16;259263;1103;22776;-74
2021/05/23 21:34:54;;;;;;;;;;;;;;;;;;;;;
2021/05/23 21:42:05;;;;;;;13.80;9.30;;;;;;;8.00;82.91;99067.55;258890;1111;22966;-75
2021/05/23 22:10:23;;;;;;;25.17;18.03;;;;;;;7.43;83.36;99059.39;259540;1108;22796;-74
2021/05/23 22:17:27;;;;;;;25.47;16.97;;;;;;;7.31;82.59;99072.13;259119;1103;26005;-74
2021/05/23 22:24:23;;;;;;;;;;;;;;;;;;;;;
2021/05/23 22:38:38;;;;;;;;;;;;;;;;;;;;;
2021/05/23 22:45:44;;;;;;;40.15;27.05;;;;;;;6.97;83.54;99083.14;258787;1108;24413;-74
2021/05/23 23:14:20;;;;;;;48.07;31.80;;;;;;;7.09;84.54;99113.02;259468;1108;22797;-75
2021/05/23 23:35:34;;;;;;;49.75;33.65;;;;;;;6.89;83.10;99123.56;258955;1103;25781;-74
